GXG weather

Negage Airport
Negage, Uíge Province, Angola

Public forecast

Using degrees Celsius for public forecast. Weather courtesy of forecast.io.

METAR (pilot weather report)

Report is more than 6 hours old.

Closest report is Uige Airport, 17.9 nm (33.2 km) WNW. Retrieved 2019/04/25 14:00 UTC (12 hours ago):

FNUG 251400Z 22008KT 9999 TS SCT020 FEW025CB BKN080 30/22 Q1013

TAF (pilot weather forecast)

Forecast is more than 12 hours old.

Closest forecast is Uige Airport, 17.9 nm (33.2 km) WNW. Retrieved 2019/04/25 00:00 UTC (1 day ago):

TAF FNUG 252300Z 2600/2612 00000KT 8000 DZRA SCT020 BKN070 PROB30 TEMPO 2603/2607 36004KT 4000 BR OVC012 BECMG 2609/2611 03008KT 6000 -TSRA BKN023 FEW025CB